createdAt,value
2022-09-28T00:01:59.491Z,10.37
2022-09-28T00:04:26.389Z,10.36
2022-09-28T00:06:53.080Z,10.29
2022-09-28T00:09:20.049Z,10.21
2022-09-28T00:11:46.871Z,10.37
2022-09-28T00:14:13.824Z,10.38
2022-09-28T00:16:43.598Z,10.36
2022-09-28T00:19:12.389Z,10.35
2022-09-28T00:21:40.873Z,10.33
2022-09-28T00:24:15.658Z,10.38
2022-09-28T00:26:48.620Z,10.41
2022-09-28T00:29:31.578Z,10.35
2022-09-28T00:32:02.379Z,10.40
2022-09-28T00:34:32.956Z,10.35
2022-09-28T00:37:01.034Z,10.29
2022-09-28T00:39:27.694Z,10.28
2022-09-28T00:41:54.773Z,10.30
2022-09-28T00:44:24.179Z,10.37
2022-09-28T00:46:52.263Z,10.37
2022-09-28T00:49:22.626Z,10.36
2022-09-28T00:51:49.222Z,10.28
2022-09-28T00:54:16.716Z,10.30
2022-09-28T00:56:47.815Z,10.35
2022-09-28T00:59:15.067Z,10.35
2022-09-28T01:04:48.706Z,10.33
2022-09-28T01:07:18.111Z,10.34
2022-09-28T01:09:45.987Z,10.28
2022-09-28T01:12:13.051Z,10.35
2022-09-28T01:14:41.200Z,10.35
2022-09-28T01:17:24.502Z,10.29
2022-09-28T01:20:24.117Z,10.25
2022-09-28T01:23:18.974Z,10.37
2022-09-28T01:26:23.801Z,10.44
2022-09-28T01:28:59.474Z,10.55
2022-09-28T01:31:31.436Z,10.47
2022-09-28T01:34:05.181Z,10.38
2022-09-28T01:36:42.291Z,10.40
2022-09-28T01:39:13.368Z,10.45
2022-09-28T01:41:43.832Z,10.39
2022-09-28T01:44:15.875Z,10.43
2022-09-28T01:46:46.560Z,10.42
2022-09-28T01:49:22.821Z,10.30
2022-09-28T01:52:00.250Z,10.40
2022-09-28T01:54:29.088Z,10.41
2022-09-28T01:57:03.063Z,10.36
2022-09-28T01:59:34.460Z,10.44
2022-09-28T02:02:12.135Z,10.45
2022-09-28T02:04:51.775Z,10.44
2022-09-28T02:07:23.058Z,10.42
2022-09-28T02:10:22.115Z,10.43
2022-09-28T02:12:53.884Z,10.42
2022-09-28T02:15:25.820Z,10.39
2022-09-28T02:17:52.449Z,10.47
2022-09-28T02:20:21.597Z,10.51
2022-09-28T02:22:59.750Z,10.50
2022-09-28T02:25:30.912Z,10.53
2022-09-28T02:28:04.225Z,10.54
2022-09-28T02:30:33.087Z,10.54
2022-09-28T02:33:05.170Z,10.58
2022-09-28T02:35:33.876Z,10.59
2022-09-28T02:38:00.655Z,10.62
2022-09-28T02:40:33.132Z,10.59
2022-09-28T02:43:10.236Z,10.60
2022-09-28T02:46:08.092Z,10.61
2022-09-28T02:49:22.565Z,10.64
2022-09-28T02:52:16.731Z,10.52
2022-09-28T02:55:02.087Z,10.55
2022-09-28T02:57:45.366Z,10.51
2022-09-28T03:00:21.109Z,10.83
2022-09-28T03:03:12.599Z,10.82
2022-09-28T03:06:01.679Z,10.88
2022-09-28T03:08:49.459Z,10.62
2022-09-28T03:11:22.412Z,10.83
2022-09-28T03:13:51.819Z,10.98
2022-09-28T03:16:20.828Z,10.91
2022-09-28T03:18:49.193Z,10.81
2022-09-28T03:21:18.311Z,10.90
2022-09-28T03:23:45.347Z,10.79
2022-09-28T03:26:12.665Z,10.77
2022-09-28T03:28:39.609Z,10.79
2022-09-28T03:31:09.527Z,10.55
2022-09-28T03:33:36.645Z,10.34
2022-09-28T03:36:03.423Z,10.35
2022-09-28T03:38:30.889Z,10.37
2022-09-28T03:41:00.319Z,10.39
2022-09-28T03:43:31.766Z,10.77
2022-09-28T03:46:02.347Z,11.04
2022-09-28T03:48:34.128Z,10.83
2022-09-28T03:51:04.576Z,10.78
2022-09-28T03:53:32.642Z,10.63
2022-09-28T03:56:06.427Z,10.70
2022-09-28T03:58:33.423Z,10.54
2022-09-28T04:01:16.454Z,10.51
2022-09-28T04:03:45.932Z,10.58
2022-09-28T04:06:12.705Z,10.65
2022-09-28T04:08:40.008Z,10.87
2022-09-28T04:11:06.734Z,11.11
2022-09-28T04:13:33.826Z,10.76
2022-09-28T04:16:01.727Z,10.96
2022-09-28T04:18:32.845Z,10.97
2022-09-28T04:21:20.053Z,10.72
2022-09-28T04:23:55.203Z,10.61
2022-09-28T04:26:24.693Z,10.57
2022-09-28T04:29:10.143Z,10.90
2022-09-28T04:31:39.793Z,10.75
2022-09-28T04:34:06.823Z,10.78
2022-09-28T04:36:33.793Z,11.14
2022-09-28T04:39:00.430Z,11.14
2022-09-28T04:41:28.981Z,11.10
2022-09-28T04:43:56.252Z,11.03
2022-09-28T04:46:26.079Z,10.93
2022-09-28T04:49:05.460Z,11.06
2022-09-28T04:51:43.487Z,10.91
2022-09-28T04:54:10.087Z,10.97
2022-09-28T04:56:36.947Z,10.98
2022-09-28T04:59:04.100Z,10.94
2022-09-28T05:01:31.215Z,11.04
2022-09-28T05:04:20.287Z,10.97
2022-09-28T05:07:03.377Z,10.88
2022-09-28T05:09:31.593Z,10.86
2022-09-28T05:11:59.756Z,10.73
2022-09-28T05:14:26.490Z,10.81
2022-09-28T05:16:53.860Z,10.69
2022-09-28T05:19:26.549Z,10.61
2022-09-28T05:21:58.130Z,10.72
2022-09-28T05:24:25.178Z,10.98
2022-09-28T05:26:53.362Z,11.03
2022-09-28T05:29:20.086Z,10.97
2022-09-28T05:32:05.807Z,10.90
2022-09-28T05:34:41.530Z,10.89
2022-09-28T05:37:12.881Z,10.81
2022-09-28T05:39:39.522Z,10.91
2022-09-28T05:42:07.898Z,10.85
2022-09-28T05:44:34.711Z,10.87
2022-09-28T05:47:01.898Z,10.83
2022-09-28T05:49:29.186Z,10.89
2022-09-28T05:51:56.046Z,10.85
2022-09-28T05:54:22.720Z,10.88
2022-09-28T05:56:50.677Z,10.88
2022-09-28T05:59:17.302Z,10.85
2022-09-28T06:01:44.033Z,10.91
2022-09-28T06:04:11.649Z,10.72
2022-09-28T06:06:42.097Z,10.81
2022-09-28T06:09:09.128Z,10.80
2022-09-28T06:12:05.218Z,10.57
2022-09-28T06:14:40.611Z,10.74
2022-09-28T06:17:07.282Z,10.93
2022-09-28T06:19:34.222Z,11.23
2022-09-28T06:22:19.535Z,11.09
2022-09-28T06:24:54.897Z,11.21
2022-09-28T06:27:23.835Z,11.36
2022-09-28T06:29:50.482Z,11.27
2022-09-28T06:32:17.095Z,11.27
2022-09-28T06:34:46.986Z,11.28
2022-09-28T06:37:13.646Z,11.29
2022-09-28T06:39:40.284Z,11.33
2022-09-28T06:42:07.081Z,11.21
2022-09-28T06:45:02.944Z,11.03
2022-09-28T06:47:54.177Z,11.27
2022-09-28T06:50:34.006Z,11.26
2022-09-28T06:53:19.547Z,11.22
2022-09-28T06:55:50.387Z,11.19
2022-09-28T06:58:19.939Z,11.12
2022-09-28T07:00:48.114Z,11.04
2022-09-28T07:03:19.903Z,11.10
2022-09-28T07:06:16.029Z,11.16
2022-09-28T07:09:25.767Z,11.58
2022-09-28T07:12:10.723Z,11.72
2022-09-28T07:14:56.075Z,11.84
2022-09-28T07:17:24.246Z,11.66
2022-09-28T07:19:52.779Z,11.44
2022-09-28T07:22:30.365Z,11.30
2022-09-28T07:25:06.687Z,11.31
2022-09-28T07:27:42.632Z,11.67
2022-09-28T07:30:16.000Z,12.12
2022-09-28T07:33:06.031Z,12.44
2022-09-28T07:35:54.029Z,12.68
2022-09-28T07:38:22.894Z,12.65
2022-09-28T07:41:08.380Z,12.73
2022-09-28T07:43:35.959Z,12.89
2022-09-28T07:46:03.766Z,12.89
2022-09-28T07:48:36.563Z,12.75
2022-09-28T07:51:21.248Z,12.74
2022-09-28T07:54:17.849Z,12.94
2022-09-28T07:56:57.540Z,13.33
2022-09-28T07:59:47.801Z,13.38
2022-09-28T08:02:35.045Z,13.42
2022-09-28T08:05:02.640Z,13.43
2022-09-28T08:07:30.245Z,13.61
2022-09-28T08:10:04.714Z,13.59
2022-09-28T08:13:06.541Z,13.41
2022-09-28T08:15:36.880Z,13.53
2022-09-28T08:18:11.564Z,13.81
2022-09-28T08:20:57.077Z,13.64
2022-09-28T08:23:23.933Z,13.65
2022-09-28T08:25:55.070Z,13.90
2022-09-28T08:28:24.178Z,13.40
2022-09-28T08:30:54.470Z,13.27
2022-09-28T08:33:41.176Z,13.01
2022-09-28T08:36:26.529Z,12.71
2022-09-28T08:39:02.355Z,12.74
2022-09-28T08:41:52.788Z,12.71
2022-09-28T08:48:33.374Z,12.58
2022-09-28T08:51:21.902Z,12.73
2022-09-28T08:54:12.193Z,12.68
2022-09-28T08:56:59.575Z,12.81
2022-09-28T08:59:38.563Z,12.96
2022-09-28T09:02:17.144Z,12.75
2022-09-28T09:04:44.272Z,12.68
2022-09-28T09:07:42.977Z,13.20
2022-09-28T09:10:30.428Z,13.35
2022-09-28T09:13:05.612Z,13.09
2022-09-28T09:15:38.567Z,13.39
2022-09-28T09:18:49.609Z,13.71
2022-09-28T09:21:50.243Z,13.50
2022-09-28T09:24:48.373Z,13.56
2022-09-28T09:27:34.167Z,13.87
2022-09-28T09:30:06.583Z,13.76
2022-09-28T09:32:57.950Z,14.26
2022-09-28T09:36:02.677Z,14.04
2022-09-28T09:39:33.117Z,13.72
2022-09-28T09:42:47.400Z,13.88
2022-09-28T09:46:01.164Z,13.62
2022-09-28T09:48:41.893Z,13.42
2022-09-28T09:51:47.228Z,13.37
2022-09-28T09:54:24.657Z,13.19
2022-09-28T09:57:18.141Z,13.37
2022-09-28T09:59:51.096Z,13.73
2022-09-28T10:02:29.159Z,13.73
2022-09-28T10:05:28.506Z,13.93
2022-09-28T10:07:58.406Z,14.17
2022-09-28T10:10:45.559Z,14.58
2022-09-28T10:13:13.940Z,14.09
2022-09-28T10:15:42.525Z,13.80
2022-09-28T10:18:20.158Z,13.53
2022-09-28T10:21:05.777Z,13.54
2022-09-28T10:23:54.604Z,13.82
2022-09-28T10:26:27.367Z,14.41
2022-09-28T10:29:01.762Z,14.57
2022-09-28T10:31:39.461Z,14.41
2022-09-28T10:34:17.167Z,14.65
2022-09-28T10:37:03.246Z,14.84
2022-09-28T10:39:55.314Z,14.96
2022-09-28T10:42:30.418Z,14.93
2022-09-28T10:45:04.544Z,15.03
2022-09-28T10:47:36.549Z,14.99
2022-09-28T10:50:27.278Z,14.77
2022-09-28T10:53:17.739Z,14.93
2022-09-28T10:56:19.802Z,15.01
2022-09-28T10:58:48.732Z,14.61
2022-09-28T11:01:30.949Z,14.32
2022-09-28T11:04:00.610Z,14.41
2022-09-28T11:06:31.351Z,14.60
2022-09-28T11:09:01.779Z,14.61
2022-09-28T11:11:29.867Z,14.24
2022-09-28T11:14:04.353Z,13.97
2022-09-28T11:16:36.409Z,14.01
2022-09-28T11:19:26.049Z,14.25
2022-09-28T11:21:54.190Z,13.94
2022-09-28T11:24:27.126Z,13.92
2022-09-28T11:27:00.062Z,14.00
2022-09-28T11:29:43.430Z,14.16
2022-09-28T11:32:42.966Z,14.27
2022-09-28T11:35:38.388Z,14.16
2022-09-28T11:38:23.445Z,14.13
2022-09-28T11:41:23.134Z,13.93
2022-09-28T11:44:22.768Z,13.99
2022-09-28T11:47:19.601Z,14.12
2022-09-28T11:49:57.415Z,14.12
2022-09-28T11:52:45.772Z,14.22
2022-09-28T11:55:33.674Z,14.40
2022-09-28T11:58:20.339Z,14.38
2022-09-28T12:00:54.400Z,14.57
2022-09-28T12:03:40.845Z,14.64
2022-09-28T12:06:19.484Z,14.57
2022-09-28T12:08:53.678Z,14.37
2022-09-28T12:11:58.685Z,14.16
2022-09-28T12:14:46.000Z,14.08
2022-09-28T12:17:28.606Z,14.16
2022-09-28T12:20:09.764Z,14.30
2022-09-28T12:22:45.871Z,14.32
2022-09-28T12:25:20.607Z,14.42
2022-09-28T12:27:55.943Z,14.48
2022-09-28T12:30:25.608Z,14.40
2022-09-28T12:32:58.957Z,14.37
2022-09-28T12:35:31.509Z,14.46
2022-09-28T12:38:24.899Z,14.53
2022-09-28T12:41:01.376Z,14.67
2022-09-28T12:43:40.535Z,14.77
2022-09-28T12:46:34.806Z,14.68
2022-09-28T12:52:32.569Z,14.63
2022-09-28T12:55:23.985Z,14.64
2022-09-28T12:58:12.891Z,14.83
2022-09-28T13:00:54.379Z,14.88
2022-09-28T13:03:31.048Z,14.89
2022-09-28T13:06:18.260Z,15.21
2022-09-28T13:09:03.341Z,14.92
2022-09-28T13:11:54.445Z,14.84
2022-09-28T13:14:36.149Z,14.78
2022-09-28T13:17:30.353Z,14.68
2022-09-28T13:20:03.984Z,14.97
2022-09-28T13:22:45.425Z,14.91
2022-09-28T13:25:17.604Z,14.92
2022-09-28T13:28:05.475Z,15.12
2022-09-28T13:30:35.430Z,15.05
2022-09-28T13:33:05.770Z,14.97
2022-09-28T13:35:33.256Z,15.19
2022-09-28T13:38:15.170Z,15.13
2022-09-28T13:41:03.569Z,15.39
2022-09-28T13:43:55.752Z,15.35
2022-09-28T13:46:44.218Z,15.31
2022-09-28T13:49:39.454Z,15.17
2022-09-28T13:52:12.413Z,15.19
2022-09-28T13:54:54.180Z,15.29
2022-09-28T13:57:41.868Z,15.22
2022-09-28T14:00:11.917Z,15.16
2022-09-28T14:02:52.923Z,15.05
2022-09-28T14:05:22.611Z,15.05
2022-09-28T14:07:59.039Z,15.08
2022-09-28T14:11:24.665Z,15.25
2022-09-28T14:14:00.225Z,15.11
2022-09-28T14:16:32.407Z,15.28
2022-09-28T14:19:05.000Z,15.29
2022-09-28T14:21:31.716Z,15.36
2022-09-28T14:24:34.446Z,15.42
2022-09-28T14:27:19.848Z,15.35
2022-09-28T14:29:50.678Z,15.24
2022-09-28T14:32:20.222Z,15.13
2022-09-28T14:34:54.732Z,15.17
2022-09-28T14:37:59.671Z,15.23
2022-09-28T14:41:11.208Z,15.06
2022-09-28T14:43:44.037Z,15.29
2022-09-28T14:46:23.174Z,15.19
2022-09-28T14:48:55.129Z,15.10
2022-09-28T14:51:24.696Z,14.93
2022-09-28T14:53:52.978Z,15.04
2022-09-28T14:56:20.405Z,15.44
2022-09-28T14:58:53.374Z,15.45
2022-09-28T15:01:22.444Z,15.44
2022-09-28T15:03:54.232Z,15.53
2022-09-28T15:06:25.357Z,15.44
2022-09-28T15:08:52.026Z,15.46
2022-09-28T15:11:25.215Z,15.54
2022-09-28T15:14:06.314Z,15.45
2022-09-28T15:16:33.813Z,15.42
2022-09-28T15:19:22.759Z,15.26
2022-09-28T15:21:51.034Z,15.32
2022-09-28T15:24:31.646Z,15.01
2022-09-28T15:27:03.864Z,15.02
2022-09-28T15:29:33.372Z,14.99
2022-09-28T15:32:00.485Z,14.88
2022-09-28T15:34:47.353Z,14.80
2022-09-28T15:37:17.050Z,14.89
2022-09-28T15:39:48.247Z,15.02
2022-09-28T15:42:17.001Z,15.18
2022-09-28T15:45:01.159Z,14.88
2022-09-28T15:47:31.948Z,14.96
2022-09-28T15:50:02.995Z,15.01
2022-09-28T15:52:44.954Z,14.94
2022-09-28T15:55:24.213Z,14.79
2022-09-28T15:58:03.881Z,14.76
2022-09-28T16:00:31.442Z,14.89
2022-09-28T16:03:20.694Z,14.88
2022-09-28T16:05:59.338Z,14.55
2022-09-28T16:08:48.877Z,14.67
2022-09-28T16:11:21.543Z,14.73
2022-09-28T16:13:48.090Z,14.74
2022-09-28T16:16:16.802Z,14.62
2022-09-28T16:18:48.630Z,14.44
2022-09-28T16:21:33.810Z,14.80
2022-09-28T16:24:00.697Z,14.76
2022-09-28T16:26:38.884Z,14.73
2022-09-28T16:29:28.160Z,14.69
2022-09-28T16:31:55.592Z,14.47
2022-09-28T16:34:26.987Z,14.54
2022-09-28T16:36:53.892Z,14.49
2022-09-28T16:39:21.014Z,14.64
2022-09-28T16:41:55.575Z,14.62
2022-09-28T16:44:28.678Z,14.45
2022-09-28T16:46:58.417Z,14.24
2022-09-28T16:49:28.491Z,14.33
2022-09-28T16:51:55.151Z,14.34
2022-09-28T16:54:42.733Z,14.20
2022-09-28T16:57:15.422Z,14.30
2022-09-28T16:59:42.411Z,14.30
2022-09-28T17:02:35.468Z,14.54
2022-09-28T17:05:04.249Z,14.30
2022-09-28T17:07:33.471Z,14.18
2022-09-28T17:10:00.999Z,14.13
2022-09-28T17:12:28.927Z,14.27
2022-09-28T17:14:55.986Z,14.41
2022-09-28T17:17:23.237Z,14.21
2022-09-28T17:19:50.380Z,14.11
2022-09-28T17:22:18.363Z,14.02
2022-09-28T17:24:46.154Z,14.00
2022-09-28T17:27:19.206Z,14.17
2022-09-28T17:29:46.542Z,14.34
2022-09-28T17:32:18.739Z,14.65
2022-09-28T17:34:55.906Z,14.57
2022-09-28T17:37:36.069Z,14.11
2022-09-28T17:40:15.034Z,14.11
2022-09-28T17:42:42.194Z,14.20
2022-09-28T17:45:09.080Z,14.01
2022-09-28T17:47:35.953Z,13.76
2022-09-28T17:50:02.585Z,13.71
2022-09-28T17:52:30.376Z,13.70
2022-09-28T17:54:56.991Z,13.72
2022-09-28T17:57:23.693Z,13.78
2022-09-28T17:59:51.031Z,13.71
2022-09-28T18:02:17.812Z,13.63
2022-09-28T18:04:51.713Z,13.74
2022-09-28T18:07:18.705Z,13.53
2022-09-28T18:09:45.704Z,13.30
2022-09-28T18:12:12.399Z,13.15
2022-09-28T18:14:40.035Z,13.09
2022-09-28T18:17:06.678Z,13.12
2022-09-28T18:19:33.274Z,13.04
2022-09-28T18:22:01.150Z,13.11
2022-09-28T18:24:27.752Z,13.01
2022-09-28T18:26:54.340Z,13.04
2022-09-28T18:29:20.896Z,13.01
2022-09-28T18:31:48.703Z,13.35
2022-09-28T18:34:15.532Z,13.40
2022-09-28T18:36:42.200Z,13.19
2022-09-28T18:39:09.078Z,13.27
2022-09-28T18:41:36.330Z,13.38
2022-09-28T18:44:03.116Z,13.28
2022-09-28T18:46:31.269Z,13.10
2022-09-28T18:48:57.961Z,12.97
2022-09-28T18:51:24.780Z,12.82
2022-09-28T18:53:51.516Z,12.76
2022-09-28T18:56:19.627Z,12.97
2022-09-28T18:58:47.692Z,13.20
2022-09-28T19:01:29.935Z,12.96
2022-09-28T19:04:06.024Z,12.96
2022-09-28T19:06:34.300Z,13.08
2022-09-28T19:09:03.161Z,13.27
2022-09-28T19:11:29.888Z,13.32
2022-09-28T19:13:56.797Z,13.27
2022-09-28T19:16:26.713Z,13.23
2022-09-28T19:18:53.799Z,12.98
2022-09-28T19:21:20.965Z,13.10
2022-09-28T19:23:49.715Z,13.10
2022-09-28T19:26:26.099Z,13.18
2022-09-28T19:28:53.692Z,13.04
2022-09-28T19:31:23.076Z,13.26
2022-09-28T19:33:50.358Z,12.83
2022-09-28T19:36:21.136Z,12.56
2022-09-28T19:38:47.962Z,12.48
2022-09-28T19:41:43.103Z,12.51
2022-09-28T19:44:24.223Z,12.41
2022-09-28T19:47:11.599Z,12.42
2022-09-28T19:49:40.083Z,12.46
2022-09-28T19:52:15.584Z,12.42
2022-09-28T19:54:57.241Z,12.41
2022-09-28T19:57:29.640Z,12.46
2022-09-28T20:00:01.832Z,12.57
2022-09-28T20:02:33.746Z,12.45
2022-09-28T20:05:00.745Z,12.58
2022-09-28T20:07:27.383Z,12.42
2022-09-28T20:09:53.999Z,12.39
2022-09-28T20:12:20.774Z,12.53
2022-09-28T20:14:47.537Z,12.39
2022-09-28T20:17:14.259Z,12.33
2022-09-28T20:19:40.978Z,12.27
2022-09-28T20:22:07.588Z,12.25
2022-09-28T20:24:34.358Z,12.46
2022-09-28T20:27:01.370Z,12.61
2022-09-28T20:29:28.738Z,12.40
2022-09-28T20:31:55.642Z,12.39
2022-09-28T20:34:22.301Z,12.82
2022-09-28T20:36:49.041Z,12.74
2022-09-28T20:39:16.004Z,12.51
2022-09-28T20:41:42.592Z,12.72
2022-09-28T20:44:09.770Z,12.66
2022-09-28T20:46:37.361Z,12.53
2022-09-28T20:49:04.932Z,12.49
2022-09-28T20:51:32.022Z,12.38
2022-09-28T20:53:59.668Z,12.29
2022-09-28T20:56:34.548Z,12.26
2022-09-28T20:59:01.309Z,12.20
2022-09-28T21:01:30.458Z,12.02
2022-09-28T21:03:59.405Z,12.24
2022-09-28T21:06:31.740Z,12.21
2022-09-28T21:09:00.770Z,12.15
2022-09-28T21:11:29.626Z,12.07
2022-09-28T21:13:58.911Z,11.97
2022-09-28T21:16:27.455Z,12.00
2022-09-28T21:18:54.233Z,12.15
2022-09-28T21:21:22.410Z,12.00
2022-09-28T21:23:52.690Z,11.88
2022-09-28T21:26:24.942Z,11.80
2022-09-28T21:29:04.142Z,11.80
2022-09-28T21:31:36.785Z,11.80
2022-09-28T21:34:04.661Z,11.72
2022-09-28T21:36:32.116Z,11.47
2022-09-28T21:38:58.797Z,11.60
2022-09-28T21:41:25.890Z,11.80
2022-09-28T21:43:52.699Z,11.60
2022-09-28T21:46:19.678Z,11.89
2022-09-28T21:48:46.342Z,11.81
2022-09-28T21:51:14.629Z,11.76
2022-09-28T21:53:41.257Z,11.66
2022-09-28T21:56:10.651Z,11.42
2022-09-28T21:58:37.845Z,11.65
2022-09-28T22:01:15.440Z,11.52
2022-09-28T22:03:43.933Z,11.62
2022-09-28T22:06:11.165Z,11.39
2022-09-28T22:08:39.234Z,11.68
2022-09-28T22:11:09.345Z,11.44
2022-09-28T22:13:43.274Z,11.48
2022-09-28T22:16:12.133Z,11.31
2022-09-28T22:18:39.305Z,11.07
2022-09-28T22:21:11.653Z,11.28
2022-09-28T22:23:39.581Z,11.22
2022-09-28T22:26:13.781Z,11.32
2022-09-28T22:28:49.499Z,11.13
2022-09-28T22:31:18.076Z,11.25
2022-09-28T22:33:44.738Z,11.35
2022-09-28T22:36:11.867Z,11.33
2022-09-28T22:38:39.325Z,11.06
2022-09-28T22:41:06.220Z,11.10
2022-09-28T22:43:33.124Z,11.05
2022-09-28T22:46:11.000Z,11.38
2022-09-28T22:48:38.409Z,11.71
2022-09-28T22:51:07.036Z,11.56
2022-09-28T22:53:35.092Z,11.25
2022-09-28T22:56:05.507Z,11.21
2022-09-28T22:58:33.746Z,11.26
2022-09-28T23:01:19.134Z,10.94
2022-09-28T23:03:46.282Z,11.48
2022-09-28T23:06:16.460Z,11.33
2022-09-28T23:08:44.716Z,11.08
2022-09-28T23:11:11.781Z,11.06
2022-09-28T23:13:38.477Z,11.20
2022-09-28T23:16:11.867Z,11.24
2022-09-28T23:18:43.512Z,11.24
2022-09-28T23:21:15.608Z,10.98
2022-09-28T23:23:43.101Z,10.98
2022-09-28T23:26:17.526Z,10.94
2022-09-28T23:28:44.985Z,10.79
2022-09-28T23:31:15.297Z,10.87
2022-09-28T23:33:42.122Z,11.30
2022-09-28T23:36:09.418Z,11.05
2022-09-28T23:38:36.280Z,11.00
2022-09-28T23:41:02.956Z,11.10
2022-09-28T23:43:29.726Z,10.85
2022-09-28T23:45:56.302Z,10.72
2022-09-28T23:48:23.028Z,10.72
2022-09-28T23:50:49.636Z,10.58
2022-09-28T23:53:16.336Z,10.73
2022-09-28T23:55:43.433Z,10.90
2022-09-28T23:58:11.669Z,10.86
